createdAt,value
2017-07-24T00:00:03.153Z,0
2017-07-24T00:01:04.427Z,0
2017-07-24T00:02:04.164Z,0
2017-07-24T00:03:04.741Z,0
2017-07-24T00:04:04.525Z,0
2017-07-24T00:05:03.934Z,0
2017-07-24T00:06:04.270Z,0
2017-07-24T00:07:03.976Z,0
2017-07-24T00:08:04.573Z,0
2017-07-24T00:09:04.347Z,0
2017-07-24T00:10:04.379Z,0
2017-07-24T00:11:04.404Z,0
2017-07-24T00:12:04.444Z,0
2017-07-24T00:13:04.760Z,0
2017-07-24T00:14:04.495Z,0
2017-07-24T00:15:04.834Z,0
2017-07-24T00:16:03.940Z,0
2017-07-24T00:17:04.581Z,0
2017-07-24T00:18:04.856Z,0
2017-07-24T00:19:04.622Z,0
2017-07-24T00:20:04.354Z,0
2017-07-24T00:21:05.011Z,0
2017-07-24T00:22:05.041Z,0
2017-07-24T00:23:05.007Z,0
2017-07-24T00:24:04.460Z,0
2017-07-24T00:25:04.495Z,0
2017-07-24T00:26:04.836Z,0
2017-07-24T00:27:04.881Z,0
2017-07-24T00:28:04.832Z,0
2017-07-24T00:29:04.925Z,0
2017-07-24T00:30:04.643Z,0
2017-07-24T00:31:04.676Z,0
2017-07-24T00:32:05.312Z,0
2017-07-24T00:33:05.284Z,0
2017-07-24T00:34:05.066Z,0
2017-07-24T00:35:04.798Z,0
2017-07-24T00:36:05.135Z,0
2017-07-24T00:37:05.472Z,0
2017-07-24T00:38:04.865Z,0
2017-07-24T00:39:05.159Z,0
2017-07-24T00:40:05.234Z,0
2017-07-24T00:41:05.263Z,0
2017-07-24T00:42:04.984Z,0
2017-07-24T00:43:05.630Z,0
2017-07-24T00:44:05.650Z,0
2017-07-24T00:45:05.683Z,0
2017-07-24T00:46:05.404Z,0
2017-07-24T00:47:05.436Z,0
2017-07-24T00:48:05.467Z,0
2017-07-24T00:49:06.061Z,0
2017-07-24T00:50:05.211Z,0
2017-07-24T00:51:05.545Z,0
2017-07-24T00:52:05.268Z,0
2017-07-24T00:53:05.288Z,0
2017-07-24T00:54:05.883Z,0
2017-07-24T00:55:05.661Z,0
2017-07-24T00:56:05.078Z,0
2017-07-24T00:57:05.720Z,0
2017-07-24T00:58:05.745Z,0
2017-07-24T00:59:06.035Z,0
2017-07-24T01:00:05.806Z,0
2017-07-24T01:01:05.844Z,0
2017-07-24T01:02:06.177Z,0
2017-07-24T01:03:05.581Z,0
2017-07-24T01:04:06.550Z,0
2017-07-24T01:05:05.330Z,0
2017-07-24T01:06:05.352Z,0
2017-07-24T01:07:06.003Z,0
2017-07-24T01:08:05.715Z,0
2017-07-24T01:09:06.002Z,0
2017-07-24T01:10:06.403Z,0
2017-07-24T01:11:05.800Z,0
2017-07-24T01:12:06.153Z,0
2017-07-24T01:13:05.560Z,0
2017-07-24T01:14:06.194Z,0
2017-07-24T01:15:06.237Z,0
2017-07-24T01:16:06.270Z,0
2017-07-24T01:17:06.289Z,0
2017-07-24T01:18:06.327Z,0
2017-07-24T01:19:06.601Z,0
2017-07-24T01:20:06.691Z,0
2017-07-24T01:21:06.400Z,0
2017-07-24T01:22:06.115Z,0
2017-07-24T01:23:06.773Z,0
2017-07-24T01:24:06.479Z,0
2017-07-24T01:25:06.517Z,0
2017-07-24T01:26:06.548Z,0
2017-07-24T01:27:06.889Z,0
2017-07-24T01:28:06.294Z,0
2017-07-24T01:29:06.282Z,0
2017-07-24T01:30:06.660Z,0
2017-07-24T01:31:06.392Z,0
2017-07-24T01:32:06.713Z,0
2017-07-24T01:33:06.754Z,0
2017-07-24T01:34:07.078Z,0
2017-07-24T01:35:06.496Z,0
2017-07-24T01:36:06.827Z,0
2017-07-24T01:37:06.553Z,0
2017-07-24T01:38:05.962Z,0
2017-07-24T01:39:07.182Z,0
2017-07-24T01:40:07.259Z,0
2017-07-24T01:41:07.288Z,0
2017-07-24T01:42:06.998Z,0
2017-07-24T01:43:07.345Z,0
2017-07-24T01:44:07.318Z,0
2017-07-24T01:45:07.087Z,0
2017-07-24T01:46:07.129Z,0
2017-07-24T01:47:07.165Z,0
2017-07-24T01:48:06.861Z,0
2017-07-24T01:49:07.769Z,0
2017-07-24T01:50:07.222Z,0
2017-07-24T01:51:07.256Z,0
2017-07-24T01:52:06.965Z,0
2017-07-24T01:53:07.625Z,0
2017-07-24T01:54:07.646Z,0
2017-07-24T01:55:07.379Z,0
2017-07-24T01:56:07.101Z,0
2017-07-24T01:57:07.124Z,0
2017-07-24T01:58:07.458Z,0
2017-07-24T01:59:07.434Z,0
2017-07-24T02:00:07.526Z,0
2017-07-24T02:01:07.237Z,0
2017-07-24T02:02:07.266Z,0
2017-07-24T02:03:07.295Z,0
2017-07-24T02:04:08.247Z,0
2017-07-24T02:05:07.355Z,0
2017-07-24T02:06:07.369Z,0
2017-07-24T02:07:07.713Z,0
2017-07-24T02:08:08.060Z,0
2017-07-24T02:09:08.097Z,0
2017-07-24T02:10:07.768Z,0
2017-07-24T02:11:07.828Z,0
2017-07-24T02:12:08.177Z,0
2017-07-24T02:13:07.886Z,0
2017-07-24T02:14:08.230Z,0
2017-07-24T02:15:07.576Z,0
2017-07-24T02:16:07.664Z,0
2017-07-24T02:17:08.008Z,0
2017-07-24T02:18:08.346Z,0
2017-07-24T02:19:08.367Z,0
2017-07-24T02:20:08.077Z,0
2017-07-24T02:21:07.812Z,0
2017-07-24T02:22:08.154Z,0
2017-07-24T02:23:08.174Z,0
2017-07-24T02:24:09.010Z,0
2017-07-24T02:25:08.524Z,0
2017-07-24T02:26:07.949Z,0
2017-07-24T02:27:08.289Z,0
2017-07-24T02:28:08.318Z,0
2017-07-24T02:29:08.649Z,0
2017-07-24T02:30:08.937Z,0
2017-07-24T02:31:08.412Z,0
2017-07-24T02:32:08.742Z,0
2017-07-24T02:33:08.779Z,0
2017-07-24T02:34:08.813Z,0
2017-07-24T02:35:08.469Z,0
2017-07-24T02:36:08.239Z,0
2017-07-24T02:37:08.574Z,0
2017-07-24T02:38:08.298Z,0
2017-07-24T02:39:08.315Z,0
2017-07-24T02:40:08.644Z,0
2017-07-24T02:41:08.065Z,0
2017-07-24T02:42:08.394Z,0
2017-07-24T02:43:08.430Z,0
2017-07-24T02:44:08.463Z,0
2017-07-24T02:45:08.741Z,0
2017-07-24T02:46:08.834Z,0
2017-07-24T02:47:08.246Z,0
2017-07-24T02:48:09.220Z,0
2017-07-24T02:49:08.606Z,0
2017-07-24T02:50:08.890Z,0
2017-07-24T02:51:08.981Z,0
2017-07-24T02:52:09.026Z,0
2017-07-24T02:53:09.338Z,0
2017-07-24T02:54:08.752Z,0
2017-07-24T02:55:09.377Z,0
2017-07-24T02:56:09.425Z,0
2017-07-24T02:57:09.141Z,0
2017-07-24T02:58:08.862Z,0
2017-07-24T02:59:09.215Z,0
2017-07-24T03:00:09.529Z,0
2017-07-24T03:01:09.573Z,0
2017-07-24T03:02:08.974Z,0
2017-07-24T03:03:09.639Z,0
2017-07-24T03:04:09.652Z,0
2017-07-24T03:05:09.933Z,0
2017-07-24T03:06:09.705Z,0
2017-07-24T03:07:09.733Z,0
2017-07-24T03:08:09.451Z,0
2017-07-24T03:09:09.488Z,0
2017-07-24T03:10:10.118Z,0
2017-07-24T03:11:09.237Z,0
2017-07-24T03:12:09.567Z,0
2017-07-24T03:13:09.598Z,0
2017-07-24T03:14:09.636Z,0
2017-07-24T03:15:09.337Z,0
2017-07-24T03:16:09.377Z,0
2017-07-24T03:17:09.398Z,0
2017-07-24T03:18:09.435Z,0
2017-07-24T03:19:09.456Z,0
2017-07-24T03:20:09.422Z,0
2017-07-24T03:21:09.518Z,0
2017-07-24T03:22:10.174Z,0
2017-07-24T03:23:09.574Z,0
2017-07-24T03:24:10.256Z,0
2017-07-24T03:25:09.612Z,0
2017-07-24T03:26:09.963Z,0
2017-07-24T03:27:10.311Z,0
2017-07-24T03:28:09.080Z,0
2017-07-24T03:29:09.768Z,0
2017-07-24T03:30:10.329Z,0
2017-07-24T03:31:09.526Z,0
2017-07-24T03:32:10.464Z,0
2017-07-24T03:33:09.855Z,0
2017-07-24T03:34:09.888Z,0
2017-07-24T03:35:10.520Z,0
2017-07-24T03:36:09.937Z,0
2017-07-24T03:37:10.003Z,0
2017-07-24T03:38:10.619Z,0
2017-07-24T03:39:10.347Z,0
2017-07-24T03:40:10.317Z,0
2017-07-24T03:41:10.715Z,0
2017-07-24T03:42:10.415Z,0
2017-07-24T03:43:10.447Z,0
2017-07-24T03:44:10.780Z,0
2017-07-24T03:45:11.085Z,0
2017-07-24T03:46:10.530Z,0
2017-07-24T03:47:10.253Z,0
2017-07-24T03:48:10.895Z,0
2017-07-24T03:49:10.920Z,0
2017-07-24T03:50:11.209Z,0
2017-07-24T03:51:10.989Z,0
2017-07-24T03:52:10.395Z,0
2017-07-24T03:53:11.043Z,0
2017-07-24T03:54:10.760Z,0
2017-07-24T03:55:10.721Z,0
2017-07-24T03:56:10.826Z,0
2017-07-24T03:57:10.531Z,0
2017-07-24T03:58:10.903Z,0
2017-07-24T03:59:10.904Z,0
2017-07-24T04:00:11.185Z,0
2017-07-24T04:01:10.650Z,0
2017-07-24T04:02:10.988Z,0
2017-07-24T04:03:11.018Z,0
2017-07-24T04:04:11.048Z,0
2017-07-24T04:05:11.681Z,0
2017-07-24T04:06:10.786Z,0
2017-07-24T04:07:11.443Z,0
2017-07-24T04:08:10.864Z,0
2017-07-24T04:09:10.885Z,0
2017-07-24T04:10:11.789Z,0
2017-07-24T04:11:11.252Z,0
2017-07-24T04:12:10.975Z,0
2017-07-24T04:13:11.305Z,0
2017-07-24T04:14:11.013Z,0
2017-07-24T04:15:11.301Z,0
2017-07-24T04:16:11.394Z,0
2017-07-24T04:17:11.419Z,0
2017-07-24T04:18:11.752Z,0
2017-07-24T04:19:11.785Z,0
2017-07-24T04:20:11.485Z,0
2017-07-24T04:21:11.839Z,0
2017-07-24T04:22:11.559Z,0
2017-07-24T04:23:11.272Z,0
2017-07-24T04:24:11.301Z,0
2017-07-24T04:25:11.640Z,0
2017-07-24T04:26:11.354Z,0
2017-07-24T04:27:12.010Z,0
2017-07-24T04:28:11.407Z,0
2017-07-24T04:29:11.136Z,0
2017-07-24T04:30:12.100Z,0
2017-07-24T04:31:11.242Z,0
2017-07-24T04:32:11.536Z,0
2017-07-24T04:33:12.179Z,0
2017-07-24T04:34:11.924Z,0
2017-07-24T04:35:12.221Z,0
2017-07-24T04:36:11.641Z,0
2017-07-24T04:37:11.984Z,0
2017-07-24T04:38:11.709Z,0
2017-07-24T04:39:12.052Z,0
2017-07-24T04:40:12.057Z,0
2017-07-24T04:41:12.086Z,0
2017-07-24T04:42:12.123Z,0
2017-07-24T04:43:11.845Z,0
2017-07-24T04:44:12.488Z,0
2017-07-24T04:45:12.198Z,0
2017-07-24T04:46:11.610Z,0
2017-07-24T04:47:11.991Z,0
2017-07-24T04:48:12.291Z,0
2017-07-24T04:49:12.333Z,0
2017-07-24T04:50:12.603Z,0
2017-07-24T04:51:12.378Z,0
2017-07-24T04:52:12.100Z,0
2017-07-24T04:53:12.752Z,0
2017-07-24T04:54:12.472Z,0
2017-07-24T04:55:12.792Z,0
2017-07-24T04:56:12.208Z,0
2017-07-24T04:57:12.563Z,0
2017-07-24T04:58:12.272Z,0
2017-07-24T04:59:12.605Z,0
2017-07-24T05:00:12.905Z,0
2017-07-24T05:01:12.664Z,0
2017-07-24T05:02:12.071Z,0
2017-07-24T05:03:13.037Z,0
2017-07-24T05:04:12.443Z,0
2017-07-24T05:05:13.033Z,0
2017-07-24T05:06:12.805Z,0
2017-07-24T05:07:12.834Z,0
2017-07-24T05:08:12.861Z,0
2017-07-24T05:09:12.884Z,0
2017-07-24T05:10:12.856Z,0
2017-07-24T05:11:12.643Z,0
2017-07-24T05:12:12.668Z,0
2017-07-24T05:13:12.994Z,0
2017-07-24T05:14:12.733Z,0
2017-07-24T05:15:13.049Z,0
2017-07-24T05:16:12.462Z,0
2017-07-24T05:17:12.491Z,0
2017-07-24T05:18:12.830Z,0
2017-07-24T05:19:12.861Z,0
2017-07-24T05:20:13.752Z,5
2017-07-24T05:21:12.910Z,5
2017-07-24T05:22:12.940Z,5
2017-07-24T05:23:13.283Z,5
2017-07-24T05:24:13.336Z,0
2017-07-24T05:25:13.022Z,0
2017-07-24T05:26:13.618Z,0
2017-07-24T05:27:13.402Z,0
2017-07-24T05:28:13.417Z,5
2017-07-24T05:29:13.137Z,5
2017-07-24T05:30:13.482Z,5
2017-07-24T05:31:13.767Z,5
2017-07-24T05:32:12.924Z,5
2017-07-24T05:33:13.568Z,5
2017-07-24T05:34:13.595Z,5
2017-07-24T05:35:13.627Z,5
2017-07-24T05:36:13.614Z,5
2017-07-24T05:37:13.669Z,5
2017-07-24T05:38:13.384Z,5
2017-07-24T05:39:13.753Z,5
2017-07-24T05:40:14.082Z,5
2017-07-24T05:41:14.047Z,5
2017-07-24T05:42:13.494Z,10
2017-07-24T05:43:13.840Z,10
2017-07-24T05:44:13.563Z,10
2017-07-24T05:45:14.279Z,10
2017-07-24T05:46:13.874Z,10
2017-07-24T05:47:13.989Z,10
2017-07-24T05:48:13.364Z,10
2017-07-24T05:49:13.709Z,10
2017-07-24T05:50:14.358Z,10
2017-07-24T05:51:14.639Z,10
2017-07-24T05:52:14.407Z,5
2017-07-24T05:53:14.127Z,5
2017-07-24T05:54:14.157Z,10
2017-07-24T05:55:13.570Z,10
2017-07-24T05:56:13.843Z,10
2017-07-24T05:57:14.556Z,10
2017-07-24T05:58:14.281Z,10
2017-07-24T05:59:14.002Z,10
2017-07-24T06:00:14.023Z,10
2017-07-24T06:01:14.343Z,10
2017-07-24T06:02:14.388Z,15
2017-07-24T06:03:14.097Z,15
2017-07-24T06:04:14.127Z,15
2017-07-24T06:05:14.158Z,15
2017-07-24T06:06:14.431Z,15
2017-07-24T06:07:14.835Z,15
2017-07-24T06:08:14.868Z,15
2017-07-24T06:09:13.966Z,15
2017-07-24T06:10:14.606Z,15
2017-07-24T06:11:14.891Z,15
2017-07-24T06:12:14.664Z,15
2017-07-24T06:13:14.381Z,20
2017-07-24T06:14:14.102Z,15
2017-07-24T06:15:14.744Z,15
2017-07-24T06:16:15.404Z,15
2017-07-24T06:17:14.506Z,20
2017-07-24T06:18:13.897Z,15
2017-07-24T06:19:14.550Z,15
2017-07-24T06:20:15.201Z,15
2017-07-24T06:21:14.919Z,20
2017-07-24T06:22:14.948Z,25
2017-07-24T06:23:15.285Z,20
2017-07-24T06:24:14.697Z,25
2017-07-24T06:25:15.040Z,20
2017-07-24T06:26:14.731Z,20
2017-07-24T06:27:14.463Z,20
2017-07-24T06:28:14.809Z,15
2017-07-24T06:29:14.842Z,15
2017-07-24T06:30:14.873Z,15
2017-07-24T06:31:15.470Z,15
2017-07-24T06:32:15.240Z,10
2017-07-24T06:33:14.944Z,15
2017-07-24T06:34:15.594Z,15
2017-07-24T06:35:15.327Z,15
2017-07-24T06:36:14.983Z,15
2017-07-24T06:37:15.056Z,15
2017-07-24T06:38:15.118Z,15
2017-07-24T06:39:15.745Z,10
2017-07-24T06:40:15.471Z,10
2017-07-24T06:41:15.421Z,10
2017-07-24T06:42:15.200Z,15
2017-07-24T06:43:15.545Z,15
2017-07-24T06:44:15.258Z,20
2017-07-24T06:45:15.295Z,20
2017-07-24T06:46:15.576Z,25
2017-07-24T06:47:15.340Z,30
2017-07-24T06:48:15.997Z,30
2017-07-24T06:49:16.022Z,25
2017-07-24T06:50:15.432Z,25
2017-07-24T06:51:16.376Z,25
2017-07-24T06:52:15.808Z,15
2017-07-24T06:53:15.518Z,15
2017-07-24T06:54:15.546Z,20
2017-07-24T06:55:16.191Z,10
2017-07-24T06:56:16.475Z,20
2017-07-24T06:57:15.645Z,15
2017-07-24T06:58:15.342Z,30
2017-07-24T06:59:15.994Z,20
2017-07-24T07:00:16.034Z,25
2017-07-24T07:01:16.626Z,20
2017-07-24T07:02:15.769Z,20
2017-07-24T07:03:16.421Z,20
2017-07-24T07:04:16.450Z,20
2017-07-24T07:05:16.469Z,20
2017-07-24T07:06:16.137Z,25
2017-07-24T07:07:16.533Z,30
2017-07-24T07:08:16.256Z,35
2017-07-24T07:09:16.282Z,40
2017-07-24T07:10:16.312Z,45
2017-07-24T07:11:16.324Z,40
2017-07-24T07:12:16.081Z,40
2017-07-24T07:13:16.706Z,40
2017-07-24T07:14:16.414Z,40
2017-07-24T07:15:16.759Z,35
2017-07-24T07:16:16.732Z,35
2017-07-24T07:17:16.509Z,30
2017-07-24T07:18:16.849Z,30
2017-07-24T07:19:16.559Z,30
2017-07-24T07:20:16.595Z,35
2017-07-24T07:21:17.184Z,40
2017-07-24T07:22:16.645Z,45
2017-07-24T07:23:16.674Z,40
2017-07-24T07:24:16.701Z,40
2017-07-24T07:25:16.423Z,45
2017-07-24T07:26:16.448Z,45
2017-07-24T07:27:17.037Z,40
2017-07-24T07:28:16.510Z,40
2017-07-24T07:29:16.538Z,40
2017-07-24T07:30:16.880Z,40
2017-07-24T07:31:16.911Z,35
2017-07-24T07:32:17.194Z,35
2017-07-24T07:33:17.269Z,40
2017-07-24T07:34:17.009Z,45
2017-07-24T07:35:16.711Z,45
2017-07-24T07:36:16.740Z,45
2017-07-24T07:37:17.325Z,40
2017-07-24T07:38:16.466Z,40
2017-07-24T07:39:16.814Z,35
2017-07-24T07:40:17.464Z,40
2017-07-24T07:41:16.876Z,45
2017-07-24T07:42:17.773Z,45
2017-07-24T07:43:17.245Z,50
2017-07-24T07:44:17.269Z,55
2017-07-24T07:45:16.988Z,55
2017-07-24T07:46:17.331Z,55
2017-07-24T07:47:16.991Z,60
2017-07-24T07:48:17.084Z,60
2017-07-24T07:49:17.402Z,60
2017-07-24T07:50:17.135Z,60
2017-07-24T07:51:17.475Z,60
2017-07-24T07:52:17.441Z,60
2017-07-24T07:53:17.203Z,60
2017-07-24T07:54:17.233Z,65
2017-07-24T07:55:16.963Z,65
2017-07-24T07:56:17.614Z,65
2017-07-24T07:57:17.577Z,60
2017-07-24T07:58:17.990Z,60
2017-07-24T07:59:17.709Z,50
2017-07-24T08:00:17.735Z,30
2017-07-24T08:01:17.444Z,35
2017-07-24T08:02:17.440Z,35
2017-07-24T08:03:17.814Z,20
2017-07-24T08:04:17.546Z,35
2017-07-24T08:05:17.872Z,50
2017-07-24T08:06:18.212Z,45
2017-07-24T08:07:17.257Z,20
2017-07-24T08:08:17.333Z,10
2017-07-24T08:09:17.674Z,15
2017-07-24T08:10:17.394Z,30
2017-07-24T08:11:18.040Z,25
2017-07-24T08:12:17.693Z,55
2017-07-24T08:13:17.803Z,25
2017-07-24T08:14:17.819Z,20
2017-07-24T08:15:17.844Z,35
2017-07-24T08:16:18.504Z,50
2017-07-24T08:17:18.514Z,55
2017-07-24T08:18:18.546Z,50
2017-07-24T08:19:18.591Z,45
2017-07-24T08:20:18.619Z,45
2017-07-24T08:21:18.327Z,35
2017-07-24T08:22:18.605Z,40
2017-07-24T08:23:18.378Z,35
2017-07-24T08:24:18.407Z,45
2017-07-24T08:25:18.435Z,60
2017-07-24T08:26:18.156Z,45
2017-07-24T08:27:18.796Z,50
2017-07-24T08:28:17.898Z,55
2017-07-24T08:29:18.559Z,50
2017-07-24T08:30:18.584Z,40
2017-07-24T08:31:17.681Z,25
2017-07-24T08:32:18.939Z,25
2017-07-24T08:33:18.978Z,30
2017-07-24T08:34:19.023Z,40
2017-07-24T08:35:18.734Z,40
2017-07-24T08:36:18.773Z,40
2017-07-24T08:37:18.721Z,45
2017-07-24T08:38:18.802Z,55
2017-07-24T08:39:18.535Z,65
2017-07-24T08:40:18.865Z,70
2017-07-24T08:41:18.915Z,70
2017-07-24T08:42:19.497Z,70
2017-07-24T08:43:18.651Z,85
2017-07-24T08:44:19.307Z,85
2017-07-24T08:45:19.323Z,55
2017-07-24T08:46:19.045Z,40
2017-07-24T08:47:19.062Z,35
2017-07-24T08:48:19.090Z,30
2017-07-24T08:49:19.443Z,25
2017-07-24T08:50:19.157Z,20
2017-07-24T08:51:19.185Z,15
2017-07-24T08:52:19.469Z,15
2017-07-24T08:53:19.249Z,15
2017-07-24T08:54:18.959Z,25
2017-07-24T08:55:19.614Z,25
2017-07-24T08:56:19.321Z,25
2017-07-24T08:57:19.930Z,30
2017-07-24T08:58:19.093Z,35
2017-07-24T08:59:18.475Z,40
2017-07-24T09:00:19.128Z,60
2017-07-24T09:01:18.842Z,70
2017-07-24T09:02:19.750Z,70
2017-07-24T09:03:19.838Z,75
2017-07-24T09:04:19.867Z,75
2017-07-24T09:05:19.578Z,75
2017-07-24T09:06:19.608Z,75
2017-07-24T09:07:19.634Z,70
2017-07-24T09:08:19.046Z,65
2017-07-24T09:09:19.703Z,55
2017-07-24T09:10:19.424Z,50
2017-07-24T09:11:19.441Z,50
2017-07-24T09:12:19.718Z,35
2017-07-24T09:13:19.813Z,30
2017-07-24T09:14:19.541Z,25
2017-07-24T09:15:19.868Z,30
2017-07-24T09:16:19.909Z,35
2017-07-24T09:17:19.873Z,35
2017-07-24T09:18:19.958Z,55
2017-07-24T09:19:19.368Z,25
2017-07-24T09:20:19.705Z,30
2017-07-24T09:21:20.057Z,60
2017-07-24T09:22:20.062Z,35
2017-07-24T09:23:19.789Z,60
2017-07-24T09:24:20.441Z,45
2017-07-24T09:25:20.160Z,30
2017-07-24T09:26:20.172Z,25
2017-07-24T09:27:20.485Z,25
2017-07-24T09:28:19.932Z,30
2017-07-24T09:29:20.268Z,50
2017-07-24T09:30:19.989Z,45
2017-07-24T09:31:20.029Z,40
2017-07-24T09:32:20.654Z,45
2017-07-24T09:33:20.390Z,50
2017-07-24T09:34:20.416Z,55
2017-07-24T09:35:20.452Z,60
2017-07-24T09:36:20.781Z,65
2017-07-24T09:37:20.758Z,60
2017-07-24T09:38:20.223Z,55
2017-07-24T09:39:20.554Z,55
2017-07-24T09:40:20.271Z,60
2017-07-24T09:41:20.625Z,60
2017-07-24T09:42:20.942Z,60
2017-07-24T09:43:19.754Z,60
2017-07-24T09:44:21.020Z,60
2017-07-24T09:45:20.444Z,60
2017-07-24T09:46:20.442Z,55
2017-07-24T09:47:21.050Z,50
2017-07-24T09:48:20.819Z,60
2017-07-24T09:49:20.555Z,65
2017-07-24T09:50:20.876Z,80
2017-07-24T09:51:20.906Z,75
2017-07-24T09:52:21.193Z,80
2017-07-24T09:53:21.278Z,70
2017-07-24T09:54:20.676Z,75
2017-07-24T09:55:21.020Z,80
2017-07-24T09:56:21.049Z,80
2017-07-24T09:57:21.641Z,70
2017-07-24T09:58:21.423Z,55
2017-07-24T09:59:21.128Z,45
2017-07-24T10:00:21.477Z,45
2017-07-24T10:01:20.886Z,65
2017-07-24T10:02:21.844Z,85
2017-07-24T10:03:21.244Z,80
2017-07-24T10:04:21.608Z,60
2017-07-24T10:05:20.997Z,60
2017-07-24T10:06:21.652Z,55
2017-07-24T10:07:21.613Z,40
2017-07-24T10:08:21.389Z,40
2017-07-24T10:09:21.120Z,45
2017-07-24T10:10:21.460Z,60
2017-07-24T10:11:21.169Z,80
2017-07-24T10:12:21.440Z,80
2017-07-24T10:13:21.543Z,60
2017-07-24T10:14:21.884Z,45
2017-07-24T10:15:21.594Z,50
2017-07-24T10:16:21.629Z,55
2017-07-24T10:17:21.898Z,85
2017-07-24T10:18:21.675Z,100
2017-07-24T10:19:21.708Z,60
2017-07-24T10:20:22.045Z,60
2017-07-24T10:21:21.457Z,75
2017-07-24T10:22:21.790Z,70
2017-07-24T10:23:21.515Z,50
2017-07-24T10:24:22.164Z,40
2017-07-24T10:25:21.258Z,35
2017-07-24T10:26:21.287Z,40
2017-07-24T10:27:22.511Z,35
2017-07-24T10:28:21.345Z,40
2017-07-24T10:29:22.004Z,45
2017-07-24T10:30:21.716Z,50
2017-07-24T10:31:22.051Z,45
2017-07-24T10:32:21.782Z,40
2017-07-24T10:33:22.059Z,35
2017-07-24T10:34:22.461Z,35
2017-07-24T10:35:22.178Z,35
2017-07-24T10:36:21.577Z,35
2017-07-24T10:37:22.538Z,35
2017-07-24T10:38:22.196Z,35
2017-07-24T10:39:22.288Z,40
2017-07-24T10:40:22.628Z,45
2017-07-24T10:41:22.658Z,60
2017-07-24T10:42:22.375Z,70
2017-07-24T10:43:22.347Z,90
2017-07-24T10:44:22.447Z,100
2017-07-24T10:45:22.452Z,85
2017-07-24T10:46:22.834Z,65
2017-07-24T10:47:22.210Z,65
2017-07-24T10:48:23.120Z,35
2017-07-24T10:49:22.888Z,25
2017-07-24T10:50:22.607Z,30
2017-07-24T10:51:22.322Z,70
2017-07-24T10:52:22.661Z,100
2017-07-24T10:53:22.945Z,100
2017-07-24T10:54:22.712Z,95
2017-07-24T10:55:22.754Z,90
2017-07-24T10:56:22.463Z,65
2017-07-24T10:57:22.806Z,70
2017-07-24T10:58:23.405Z,55
2017-07-24T10:59:23.168Z,45
2017-07-24T11:00:23.210Z,35
2017-07-24T11:01:22.922Z,35
2017-07-24T11:02:22.641Z,45
2017-07-24T11:03:22.916Z,45
2017-07-24T11:04:23.020Z,50
2017-07-24T11:05:22.717Z,50
2017-07-24T11:06:23.377Z,40
2017-07-24T11:07:22.782Z,35
2017-07-24T11:08:23.391Z,35
2017-07-24T11:09:23.460Z,35
2017-07-24T11:10:23.493Z,40
2017-07-24T11:11:22.897Z,60
2017-07-24T11:12:23.256Z,35
2017-07-24T11:13:23.208Z,40
2017-07-24T11:14:23.320Z,45
2017-07-24T11:15:23.329Z,45
2017-07-24T11:16:23.670Z,45
2017-07-24T11:17:23.078Z,70
2017-07-24T11:18:23.366Z,110
2017-07-24T11:19:23.761Z,110
2017-07-24T11:20:23.161Z,120
2017-07-24T11:21:23.206Z,105
2017-07-24T11:22:23.842Z,105
2017-07-24T11:23:24.159Z,90
2017-07-24T11:24:23.276Z,55
2017-07-24T11:25:23.301Z,45
2017-07-24T11:26:23.655Z,40
2017-07-24T11:27:23.991Z,40
2017-07-24T11:28:24.008Z,35
2017-07-24T11:29:24.049Z,35
2017-07-24T11:30:23.757Z,30
2017-07-24T11:31:23.814Z,30
2017-07-24T11:32:24.123Z,25
2017-07-24T11:33:23.832Z,15
2017-07-24T11:34:23.569Z,10
2017-07-24T11:35:23.905Z,10
2017-07-24T11:36:23.933Z,5
2017-07-24T11:37:23.643Z,5
2017-07-24T11:38:24.242Z,5
2017-07-24T11:39:23.723Z,10
2017-07-24T11:40:24.056Z,15
2017-07-24T11:41:23.771Z,15
2017-07-24T11:42:24.429Z,15
2017-07-24T11:43:24.079Z,15
2017-07-24T11:44:23.860Z,20
2017-07-24T11:45:23.883Z,30
2017-07-24T11:46:23.910Z,30
2017-07-24T11:47:23.939Z,40
2017-07-24T11:48:24.218Z,50
2017-07-24T11:49:24.019Z,55
2017-07-24T11:50:24.031Z,215
2017-07-24T11:51:24.055Z,330
2017-07-24T11:52:24.708Z,180
2017-07-24T11:53:24.688Z,285
2017-07-24T11:54:24.778Z,295
2017-07-24T11:55:24.174Z,200
2017-07-24T11:56:24.822Z,290
2017-07-24T11:57:24.541Z,385
2017-07-24T11:58:25.192Z,440
2017-07-24T11:59:24.920Z,290
2017-07-24T12:00:24.341Z,330
2017-07-24T12:01:24.370Z,80
2017-07-24T12:02:24.379Z,125
2017-07-24T12:03:25.026Z,60
2017-07-24T12:04:24.750Z,75
2017-07-24T12:05:24.493Z,65
2017-07-24T12:06:24.821Z,70
2017-07-24T12:07:24.866Z,35
2017-07-24T12:08:25.143Z,15
2017-07-24T12:09:25.209Z,10
2017-07-24T12:10:24.620Z,10
2017-07-24T12:11:25.279Z,10
2017-07-24T12:12:25.303Z,5
2017-07-24T12:13:25.329Z,10
2017-07-24T12:14:24.748Z,15
2017-07-24T12:15:25.402Z,25
2017-07-24T12:16:25.434Z,25
2017-07-24T12:17:25.139Z,30
2017-07-24T12:18:25.158Z,35
2017-07-24T12:19:24.898Z,30
2017-07-24T12:20:25.214Z,40
2017-07-24T12:21:25.268Z,35
2017-07-24T12:22:25.279Z,30
2017-07-24T12:23:25.300Z,25
2017-07-24T12:24:25.650Z,20
2017-07-24T12:25:25.061Z,20
2017-07-24T12:26:25.714Z,20
2017-07-24T12:27:25.431Z,60
2017-07-24T12:28:26.021Z,375
2017-07-24T12:29:25.481Z,135
2017-07-24T12:30:25.535Z,65
2017-07-24T12:31:25.554Z,40
2017-07-24T12:32:25.577Z,25
2017-07-24T12:33:25.867Z,15
2017-07-24T12:34:25.329Z,10
2017-07-24T12:35:25.354Z,10
2017-07-24T12:36:25.378Z,10
2017-07-24T12:37:25.724Z,15
2017-07-24T12:38:26.319Z,45
2017-07-24T12:39:26.098Z,140
2017-07-24T12:40:25.814Z,130
2017-07-24T12:41:25.842Z,140
2017-07-24T12:42:25.567Z,120
2017-07-24T12:43:26.152Z,120
2017-07-24T12:44:25.621Z,150
2017-07-24T12:45:26.274Z,140
2017-07-24T12:46:25.051Z,190
2017-07-24T12:47:25.711Z,410
2017-07-24T12:48:26.356Z,580
2017-07-24T12:49:25.777Z,565
2017-07-24T12:50:25.802Z,115
2017-07-24T12:51:26.156Z,30
2017-07-24T12:52:25.237Z,20
2017-07-24T12:53:26.461Z,15
2017-07-24T12:54:25.934Z,15
2017-07-24T12:55:26.262Z,20
2017-07-24T12:56:25.987Z,15
2017-07-24T12:57:26.324Z,10
2017-07-24T12:58:26.915Z,10
2017-07-24T12:59:26.380Z,5
2017-07-24T13:00:26.430Z,5
2017-07-24T13:01:26.452Z,10
2017-07-24T13:02:26.491Z,10
2017-07-24T13:03:26.484Z,5
2017-07-24T13:04:26.539Z,5
2017-07-24T13:05:26.569Z,5
2017-07-24T13:06:26.594Z,5
2017-07-24T13:07:26.632Z,5
2017-07-24T13:08:26.588Z,5
2017-07-24T13:09:26.369Z,10
2017-07-24T13:10:26.406Z,10
2017-07-24T13:11:27.059Z,15
2017-07-24T13:12:27.076Z,15
2017-07-24T13:13:27.069Z,15
2017-07-24T13:14:26.517Z,15
2017-07-24T13:15:27.178Z,15
2017-07-24T13:16:26.887Z,15
2017-07-24T13:17:26.924Z,15
2017-07-24T13:18:26.625Z,10
2017-07-24T13:19:26.985Z,10
2017-07-24T13:20:27.011Z,10
2017-07-24T13:21:27.353Z,5
2017-07-24T13:22:27.064Z,5
2017-07-24T13:23:27.411Z,5
2017-07-24T13:24:26.505Z,10
2017-07-24T13:25:27.471Z,10
2017-07-24T13:26:27.644Z,10
2017-07-24T13:27:27.529Z,10
2017-07-24T13:28:27.505Z,10
2017-07-24T13:29:27.584Z,10
2017-07-24T13:30:27.312Z,10
2017-07-24T13:31:27.332Z,10
2017-07-24T13:32:27.348Z,10
2017-07-24T13:33:27.952Z,10
2017-07-24T13:34:26.797Z,10
2017-07-24T13:35:27.447Z,10
2017-07-24T13:36:26.852Z,10
2017-07-24T13:37:27.856Z,10
2017-07-24T13:38:27.521Z,15
2017-07-24T13:39:27.903Z,15
2017-07-24T13:40:27.591Z,15
2017-07-24T13:41:27.619Z,20
2017-07-24T13:42:27.956Z,20
2017-07-24T13:43:27.940Z,25
2017-07-24T13:44:27.716Z,50
2017-07-24T13:45:27.744Z,115
2017-07-24T13:46:27.456Z,120
2017-07-24T13:47:27.795Z,145
2017-07-24T13:48:27.765Z,120
2017-07-24T13:49:27.854Z,80
2017-07-24T13:50:28.192Z,60
2017-07-24T13:51:28.228Z,65
2017-07-24T13:52:27.936Z,85
2017-07-24T13:53:28.225Z,85
2017-07-24T13:54:28.314Z,65
2017-07-24T13:55:28.021Z,60
2017-07-24T13:56:28.368Z,70
2017-07-24T13:57:27.776Z,75
2017-07-24T13:58:27.793Z,80
2017-07-24T13:59:27.769Z,105
2017-07-24T14:00:28.171Z,105
2017-07-24T14:01:27.584Z,85
2017-07-24T14:02:27.600Z,55
2017-07-24T14:03:28.264Z,40
2017-07-24T14:04:28.538Z,30
2017-07-24T14:05:27.990Z,25
2017-07-24T14:06:27.720Z,20
2017-07-24T14:07:28.073Z,20
2017-07-24T14:08:28.086Z,20
2017-07-24T14:09:28.687Z,15
2017-07-24T14:10:28.462Z,15
2017-07-24T14:11:28.500Z,10
2017-07-24T14:12:28.838Z,5
2017-07-24T14:13:28.556Z,0
2017-07-24T14:14:28.566Z,0
2017-07-24T14:15:28.911Z,0
2017-07-24T14:16:28.644Z,0
2017-07-24T14:17:28.046Z,0
2017-07-24T14:18:28.694Z,0
2017-07-24T14:19:29.055Z,0
2017-07-24T14:20:28.743Z,0
2017-07-24T14:21:28.468Z,0
2017-07-24T14:22:28.814Z,0
2017-07-24T14:23:29.173Z,0
2017-07-24T14:24:28.813Z,0
2017-07-24T14:25:28.585Z,0
2017-07-24T14:26:28.620Z,0
2017-07-24T14:27:28.953Z,0